Enter the Airport ICAO Code

Search by Airport or City

Current Weather

LEBB | Bilbao Airport

Bilbao, Basque Country, Spain

Last Update 9 Minutes Ago

Heavy Thunderstorm with Rain

Temperature of 24 ºC

Moderate Winds from NorthWest

Temperature

24 ºC

Dew Point Temperature

21 ºC

Relative Humidity

83.43 %

Wind Direction

NorthWest (310º, Ranging from 280º to 340º)

Wind Velocity

24 km/h (13 kt)

Gusts

None

Visibility

Greater than 10 Kilometers

Sea Level Pressure

1010 hPa (Hectopascals)

Layers of Clouds

5% to 30% of Sky Covered with Cumulonimbus from 732 mts (2400 ft) Above Ground Level.

30% to 60% of Sky Covered from 1219 mts (4000 ft) Above Ground Level.

METAR LEBB 121430Z 31013KT 280V340 9999 +TSRA FEW024CB SCT040 24/21 Q1010 NOSIG

Weather Forecast

LEBB | Bilbao Airport

Bilbao, Basque Country, Spain

Forecast valid for the next 21 Hours

From now on it is expected:

Partly Cloudy Sky

Light to Moderate Winds from NorthWest

From now on it is expected 9 hours with intermittent periods of:

Rain, Thunderstorm

Moderate Winds from West with Gusts

In 9 hours it is expected the begining of 6 hours with intermittent periods of:

Light Rain, Mist

Maximum Temperature

31 ºC in -1 Hours

Minimum Temperature

18 ºC in 15 Hours

TAF LEBB 121249Z 1212/1312 32008KT 9999 SCT040 TX31/1214Z TN18/1306Z PROB40 TEMPO 1214/1224 28015G25KT 3000 SHRA TS SCT025CB BKN030TCU PROB40 TEMPO 1300/1306 3000 -SHRA BR SCT030TCU